West, Illinois
Current Conditions -  °F | °C
As of 7:56 PM on Monday 24 Nov 2014 (Local Time) from KBMI Reporting Station
Overcast Overcast  
Wind Chill: 20°   Ceiling: 1700
Heat Index: 30°   Visibility: 10mi
Dew Point: 25°   Wind: 14mph
Humidity: 82%   Direction: 260°W
Pressure: 29.84"   Gusts: NA
Location:  40.382°N, 88.6331°W
Report Text: KBMI 250156Z 26012KT 10SM BKN017 OVC031 M01/M04 A2984 RMK AO2 T10111038 UPE0059 P0000 PK WND 28028/0057 SLP121
Loading
Personal Weather Stations






























Interactive Weather Map New forecast layout! Learn more

10-Day Weather Forecast

Advertisements
Track Severe Weather on mobile